ADDS METAR Data INFO
IDs: Format: Raw Decoded Include TAF

Data at: 0156 UTC 17 Oct 2017

PASD 170149Z 21008KT 10SM FEW018 BKN028 OVC035 08/03 A2971 RMK AO2 AE PNO $
PASD 170145Z 21010KT 10SM FEW018 BKN028 OVC035 08/03 A2971 RMK AO2 AE PNO $
PASD 170144Z 22009KT 10SM FEW018 BKN028 OVC035 08/03 A2971 RMK AO2 AE PNO $
PASD 170056Z 22007KT 10SM FEW028 SCT036 BKN048 08/02 A2974 RMK AO2 SLP074 AE T00830022 PNO $
PASD 170052Z 23007KT 10SM FEW028 SCT036 BKN048 08/02 A2974 RMK AO2 AE PNO $
PASD 162256Z 25008KT 10SM FEW032 SCT038 BKN045 08/01 A2979 RMK AO2 SLP091 DA T00830011 PNO $
PASD 162156Z VRB04KT 10SM SCT035 BKN044 08/02 A2981 RMK AO2 SLP098 DA T00830017 PNO $
PASD 161956Z 00000KT 10SM FEW042 07/03 A2982 RMK AO2 SLP102 DA T00670028 PNO $
PASD 161856Z 00000KT 10SM FEW028 FEW045 04/03 A2983 RMK AO2 SLP105 DA T00390028 PNO $
PASD 161756Z 00000KT 10SM FEW028 FEW040 02/02 A2982 RMK AO2 SLP101 DA 6//// T00220017 10039 20017 51010 PNO $
PASD 161656Z 00000KT 10SM CLR 02/02 A2981 RMK AO2 SLP098 DA T00220022 PNO $
PASD 161556Z 00000KT 10SM CLR 03/02 A2981 RMK AO2 SLP096 DA T00280017 PNO $
PASD 161456Z 00000KT 10SM CLR 02/01 A2979 RMK AO2 SLP091 DA 6//// T00220011 51003 PNO $
PASD 161256Z AUTO 00000KT 10SM CLR 03/02 A2978 RMK AO2 SLP088 T00280017 PNO $
PASD 161156Z AUTO 00000KT 10SM CLR 02/01 A2978 RMK AO2 SLP087 6//// 7//// T00220011 10061 20022 58001 FZRANO PNO $
PASD 161056Z AUTO 00000KT 10SM CLR 03/02 A2978 RMK AO2 SLP087 T00330017 PNO $
PASD 160956Z AUTO 00000KT 10SM OVC029 03/02 A2979 RMK AO2 SLP090 T00330017 PNO $
PASD 160856Z AUTO 00000KT 10SM CLR 03/02 A2978 RMK AO2 SLP088 6//// T00280017 400890028 51004 PNO $
PASD 160656Z AUTO 00000KT 10SM CLR 05/02 A2978 RMK AO2 SLP086 T00500017 PNO $
PASD 160556Z AUTO 29005KT 10SM CLR 06/03 A2977 RMK AO2 SLP084 6//// T00610028 10089 20061 53005 PNO $
PASD 160456Z AUTO 30007KT 10SM OVC033 07/02 A2976 RMK AO2 SLP080 T00720022 PNO $
PASD 160304Z AUTO 30008KT 10SM BKN042 08/03 A2976 RMK AO2 PNO $
PASD 160254Z 30008KT 10SM FEW020 SCT032 BKN044 08/03 A2976 RMK AO2 LAST AE PNO $
PASD 160154Z 27009KT 10SM FEW028 SCT037 SCT050 08/02 A2975 RMK AO2 AE PNO $
PASD 160052Z 29009KT 10SM FEW028 SCT037 SCT050 08/03 A2976 RMK AO2 AE PNO $
PASD 152256Z 31011KT 10SM FEW032 SCT048 BKN060 08/03 A2977 RMK AO2 SLP084 AE T00830028 PNO $
PASD 152251Z 31011KT 10SM FEW032 SCT048 BKN060 08/02 A2977 RMK AO2 AE PNO $
PASD 152156Z 31009KT 10SM FEW032 SCT048 BKN060 08/02 A2977 RMK AO2 RAE56 SLP084 AE T00780022 PNO $
PASD 152056Z 32009KT 10SM -RA SCT032 BKN050 07/03 A2977 RMK AO2 RAB53 SLP082 AE 6//// T00720028 53006 PNO $
PASD 152053Z 32013G17KT 10SM -RA SCT032 BKN050 07/03 A2977 RMK AO2 RAB53 AE PNO $
PASD 151956Z 31008KT 10SM FEW032 SCT047 07/03 A2976 RMK AO2 SLP080 AE T00720033 PNO $
PASD 151803Z 00000KT 10SM SCT028 BKN036 BKN050 06/03 A2975 RMK AO2 AE PNO $
PASD 151756Z 00000KT 10SM SCT028 BKN036 BKN050 06/03 A2975 RMK AO2 RAE14B30E52 SLP076 AE 6//// T00560033 10067 20044 57001 PNO $
PASD 151730Z 00000KT 9SM -RA SCT028 BKN036 BKN050 06/03 A2975 RMK AO2 RAE14B30 AE PNO $
PASD 151714Z 00000KT 10SM SCT028 BKN044 BKN060 06/03 A2975 RMK AO2 RAE14 AE PNO $
PASD 151656Z 33004KT 10SM -RA OVC033 06/03 A2975 RMK AO2 SLP076 T00560028 PNO $
PASD 151556Z 33005KT 10SM -RA SCT030 BKN060 06/03 A2975 RMK AO2 RAB01 SLP076 AE T00610028 PNO $
PASD 151554Z 32005KT 10SM -RA SCT030 BKN060 06/03 A2975 RMK AO2 RAB01 AE PNO $
PASD 151457Z 29007KT 10SM SCT030 BKN060 07/03 A2975 RMK AO2 AE PNO $
PASD 151456Z 29007KT 10SM SCT030 BKN060 07/03 A2975 RMK AO2 SLP077 AE 6//// T00670033 56007 PNO $
PASD 151454Z AUTO 28009KT 10SM BKN030 BKN045 OVC050 07/03 A2975 RMK AO2 PNO $
PASD 151443Z AUTO 28008KT 10SM BKN028 OVC085 07/03 A2975 RMK AO2 PNO $